sensor_id;sensor_type;location;lat;lon;timestamp;pressure;altitude;pressure_sealevel;temperature;humidity
49463;BME280;35357;51.722;0.500;2023-09-19T00:00:57;100463.31;;;13.82;80.16
49463;BME280;35357;51.722;0.500;2023-09-19T00:03:24;100463.36;;;14.01;80.02
49463;BME280;35357;51.722;0.500;2023-09-19T00:05:51;100464.64;;;14.26;79.50
49463;BME280;35357;51.722;0.500;2023-09-19T00:08:18;100464.60;;;14.15;79.51
49463;BME280;35357;51.722;0.500;2023-09-19T00:10:44;100475.09;;;12.79;83.58
49463;BME280;35357;51.722;0.500;2023-09-19T00:13:11;100476.98;;;13.05;84.68
49463;BME280;35357;51.722;0.500;2023-09-19T00:15:39;100472.50;;;14.23;81.67
49463;BME280;35357;51.722;0.500;2023-09-19T00:18:07;100469.64;;;13.80;81.60
49463;BME280;35357;51.722;0.500;2023-09-19T00:20:36;100476.28;;;13.60;82.44
49463;BME280;35357;51.722;0.500;2023-09-19T00:23:03;100471.76;;;15.20;78.56
49463;BME280;35357;51.722;0.500;2023-09-19T00:25:31;100475.30;;;13.66;82.92
49463;BME280;35357;51.722;0.500;2023-09-19T00:27:58;100469.40;;;13.74;82.25
49463;BME280;35357;51.722;0.500;2023-09-19T00:30:24;100466.43;;;14.23;79.44
49463;BME280;35357;51.722;0.500;2023-09-19T00:32:51;100466.90;;;14.68;79.57
49463;BME280;35357;51.722;0.500;2023-09-19T00:35:18;100464.97;;;14.63;79.64
49463;BME280;35357;51.722;0.500;2023-09-19T00:37:45;100460.99;;;14.20;81.00
49463;BME280;35357;51.722;0.500;2023-09-19T00:40:12;100457.87;;;13.96;82.25
49463;BME280;35357;51.722;0.500;2023-09-19T00:42:40;100460.22;;;14.00;81.21
49463;BME280;35357;51.722;0.500;2023-09-19T00:45:08;100457.84;;;13.64;82.03
49463;BME280;35357;51.722;0.500;2023-09-19T00:47:36;100460.75;;;13.73;84.76
49463;BME280;35357;51.722;0.500;2023-09-19T00:50:05;66588.06;;;16.44;81.20
49463;BME280;35357;51.722;0.500;2023-09-19T00:52:33;100462.22;;;14.00;81.94
49463;BME280;35357;51.722;0.500;2023-09-19T00:55:00;100463.12;;;14.21;82.37
49463;BME280;35357;51.722;0.500;2023-09-19T00:57:28;100473.15;;;12.73;88.70
49463;BME280;35357;51.722;0.500;2023-09-19T00:59:56;100468.64;;;12.50;91.44
49463;BME280;35357;51.722;0.500;2023-09-19T01:02:24;100458.76;;;14.33;84.87
49463;BME280;35357;51.722;0.500;2023-09-19T01:04:51;100469.29;;;14.05;83.87
49463;BME280;35357;51.722;0.500;2023-09-19T01:07:18;100481.91;;;12.53;88.52
49463;BME280;35357;51.722;0.500;2023-09-19T01:09:45;100492.63;;;13.49;86.67
49463;BME280;35357;51.722;0.500;2023-09-19T01:12:16;100496.23;;;14.14;85.02
49463;BME280;35357;51.722;0.500;2023-09-19T01:14:52;100499.71;;;13.94;85.35
49463;BME280;35357;51.722;0.500;2023-09-19T01:17:27;100498.71;;;13.23;86.80
49463;BME280;35357;51.722;0.500;2023-09-19T01:20:16;100488.86;;;13.95;85.14
49463;BME280;35357;51.722;0.500;2023-09-19T01:22:57;100485.49;;;13.76;85.86
49463;BME280;35357;51.722;0.500;2023-09-19T01:26:04;100491.55;;;13.97;85.75
49463;BME280;35357;51.722;0.500;2023-09-19T01:28:34;100489.01;;;13.90;87.09
49463;BME280;35357;51.722;0.500;2023-09-19T01:31:09;100488.97;;;13.84;84.90
49463;BME280;35357;51.722;0.500;2023-09-19T01:34:09;100502.02;;;13.70;87.68
49463;BME280;35357;51.722;0.500;2023-09-19T01:36:37;100504.95;;;13.33;88.67
49463;BME280;35357;51.722;0.500;2023-09-19T01:39:06;100504.20;;;14.55;84.19
49463;BME280;35357;51.722;0.500;2023-09-19T01:41:47;100504.42;;;13.48;85.87
49463;BME280;35357;51.722;0.500;2023-09-19T01:44:24;100495.21;;;14.73;83.39
49463;BME280;35357;51.722;0.500;2023-09-19T01:46:55;100502.74;;;12.94;87.64
49463;BME280;35357;51.722;0.500;2023-09-19T01:49:33;100502.26;;;13.13;88.31
49463;BME280;35357;51.722;0.500;2023-09-19T01:52:08;100502.31;;;13.56;87.30
49463;BME280;35357;51.722;0.500;2023-09-19T01:54:46;100503.60;;;13.34;86.70
49463;BME280;35357;51.722;0.500;2023-09-19T01:57:20;100501.36;;;14.45;84.06
49463;BME280;35357;51.722;0.500;2023-09-19T01:59:54;100502.82;;;13.69;86.58
49463;BME280;35357;51.722;0.500;2023-09-19T02:02:25;100499.49;;;13.49;87.35
49463;BME280;35357;51.722;0.500;2023-09-19T02:04:55;100503.38;;;13.96;86.66
49463;BME280;35357;51.722;0.500;2023-09-19T02:07:22;100498.85;;;13.09;88.77
49463;BME280;35357;51.722;0.500;2023-09-19T02:09:49;100493.51;;;13.27;88.79
49463;BME280;35357;51.722;0.500;2023-09-19T02:12:16;100498.50;;;13.71;87.31
49463;BME280;35357;51.722;0.500;2023-09-19T02:14:43;100496.01;;;13.27;87.30
49463;BME280;35357;51.722;0.500;2023-09-19T02:17:09;100497.47;;;13.34;87.49
49463;BME280;35357;51.722;0.500;2023-09-19T02:19:36;100497.30;;;13.93;85.42
49463;BME280;35357;51.722;0.500;2023-09-19T02:22:04;100496.20;;;13.90;87.06
49463;BME280;35357;51.722;0.500;2023-09-19T02:24:30;100494.32;;;12.81;89.34
49463;BME280;35357;51.722;0.500;2023-09-19T02:26:57;100485.81;;;12.50;90.70
49463;BME280;35357;51.722;0.500;2023-09-19T02:29:24;100488.33;;;13.80;86.20
49463;BME280;35357;51.722;0.500;2023-09-19T02:31:51;100484.81;;;14.25;86.62
49463;BME280;35357;51.722;0.500;2023-09-19T02:34:18;100482.62;;;13.87;85.85
49463;BME280;35357;51.722;0.500;2023-09-19T02:36:44;100477.79;;;13.23;87.85
49463;BME280;35357;51.722;0.500;2023-09-19T02:39:11;100474.53;;;12.42;90.69
49463;BME280;35357;51.722;0.500;2023-09-19T02:41:38;100481.10;;;13.53;88.04
49463;BME280;35357;51.722;0.500;2023-09-19T02:44:05;100488.64;;;13.80;87.52
49463;BME280;35357;51.722;0.500;2023-09-19T02:46:31;100483.71;;;13.84;86.96
49463;BME280;35357;51.722;0.500;2023-09-19T02:48:58;100482.28;;;14.03;85.86
49463;BME280;35357;51.722;0.500;2023-09-19T02:51:25;100486.80;;;13.64;86.49
49463;BME280;35357;51.722;0.500;2023-09-19T02:53:52;100489.45;;;14.26;84.65
49463;BME280;35357;51.722;0.500;2023-09-19T02:56:19;100497.65;;;14.15;84.17
49463;BME280;35357;51.722;0.500;2023-09-19T02:58:46;100495.13;;;14.81;82.34
49463;BME280;35357;51.722;0.500;2023-09-19T03:01:13;100498.61;;;14.13;82.87
49463;BME280;35357;51.722;0.500;2023-09-19T03:03:40;100505.80;;;14.05;82.89
49463;BME280;35357;51.722;0.500;2023-09-19T03:06:07;100510.92;;;13.98;84.52
49463;BME280;35357;51.722;0.500;2023-09-19T03:08:34;100500.46;;;14.54;82.15
49463;BME280;35357;51.722;0.500;2023-09-19T03:11:03;100497.37;;;14.60;81.94
49463;BME280;35357;51.722;0.500;2023-09-19T03:13:31;100490.08;;;14.43;82.24
49463;BME280;35357;51.722;0.500;2023-09-19T03:15:57;100487.16;;;14.28;81.66
49463;BME280;35357;51.722;0.500;2023-09-19T03:18:24;100484.17;;;13.91;84.55
49463;BME280;35357;51.722;0.500;2023-09-19T03:20:53;100475.12;;;14.18;82.97
49463;BME280;35357;51.722;0.500;2023-09-19T03:23:20;100485.93;;;13.81;84.39
49463;BME280;35357;51.722;0.500;2023-09-19T03:25:47;100482.06;;;14.15;82.26
49463;BME280;35357;51.722;0.500;2023-09-19T03:28:14;100484.13;;;14.17;82.69
49463;BME280;35357;51.722;0.500;2023-09-19T03:30:41;100480.99;;;13.90;82.31
49463;BME280;35357;51.722;0.500;2023-09-19T03:33:08;100477.26;;;14.70;80.89
49463;BME280;35357;51.722;0.500;2023-09-19T03:35:35;100479.80;;;14.28;80.87
49463;BME280;35357;51.722;0.500;2023-09-19T03:38:03;100485.44;;;13.33;85.23
49463;BME280;35357;51.722;0.500;2023-09-19T03:40:30;100475.04;;;14.61;79.89
49463;BME280;35357;51.722;0.500;2023-09-19T03:43:00;100473.14;;;14.33;81.90
49463;BME280;35357;51.722;0.500;2023-09-19T03:45:27;100470.59;;;14.37;80.78
49463;BME280;35357;51.722;0.500;2023-09-19T03:47:54;100474.55;;;14.08;80.99
49463;BME280;35357;51.722;0.500;2023-09-19T03:50:21;100474.24;;;14.97;78.45
49463;BME280;35357;51.722;0.500;2023-09-19T03:52:47;100467.56;;;14.96;77.80
49463;BME280;35357;51.722;0.500;2023-09-19T03:55:14;100464.06;;;14.52;79.30
49463;BME280;35357;51.722;0.500;2023-09-19T03:57:42;100460.75;;;15.02;77.56
49463;BME280;35357;51.722;0.500;2023-09-19T04:00:10;100458.62;;;14.39;79.65
49463;BME280;35357;51.722;0.500;2023-09-19T04:02:38;100455.39;;;15.24;77.45
49463;BME280;35357;51.722;0.500;2023-09-19T04:05:06;100451.43;;;13.71;82.59
49463;BME280;35357;51.722;0.500;2023-09-19T04:07:33;100450.63;;;15.26;77.52
49463;BME280;35357;51.722;0.500;2023-09-19T04:10:00;100450.31;;;15.03;78.67
49463;BME280;35357;51.722;0.500;2023-09-19T04:12:27;100442.81;;;14.82;78.72
49463;BME280;35357;51.722;0.500;2023-09-19T04:14:54;100447.95;;;13.99;81.22
49463;BME280;35357;51.722;0.500;2023-09-19T04:17:20;100440.83;;;14.12;82.67
49463;BME280;35357;51.722;0.500;2023-09-19T04:19:47;100447.02;;;13.19;85.17
49463;BME280;35357;51.722;0.500;2023-09-19T04:22:14;100444.27;;;14.87;80.87
49463;BME280;35357;51.722;0.500;2023-09-19T04:24:41;100440.74;;;14.66;81.83
49463;BME280;35357;51.722;0.500;2023-09-19T04:27:07;100439.87;;;14.34;80.63
49463;BME280;35357;51.722;0.500;2023-09-19T04:29:34;100442.48;;;14.61;80.95
49463;BME280;35357;51.722;0.500;2023-09-19T04:32:01;100440.69;;;15.07;78.58
49463;BME280;35357;51.722;0.500;2023-09-19T04:34:29;100441.73;;;15.40;76.68
49463;BME280;35357;51.722;0.500;2023-09-19T04:36:55;100433.59;;;15.58;76.00
49463;BME280;35357;51.722;0.500;2023-09-19T04:39:22;100438.67;;;14.99;78.21
49463;BME280;35357;51.722;0.500;2023-09-19T04:41:49;100437.39;;;15.19;77.33
49463;BME280;35357;51.722;0.500;2023-09-19T04:44:16;100441.57;;;15.58;75.44
49463;BME280;35357;51.722;0.500;2023-09-19T04:46:43;100444.88;;;15.69;74.39
49463;BME280;35357;51.722;0.500;2023-09-19T04:49:10;100441.39;;;16.21;73.48
49463;BME280;35357;51.722;0.500;2023-09-19T04:51:37;100437.94;;;15.74;73.48
49463;BME280;35357;51.722;0.500;2023-09-19T04:54:04;100437.45;;;15.81;74.33
49463;BME280;35357;51.722;0.500;2023-09-19T04:56:31;100438.18;;;15.41;74.56
49463;BME280;35357;51.722;0.500;2023-09-19T04:58:59;100434.08;;;15.46;75.53
49463;BME280;35357;51.722;0.500;2023-09-19T05:01:26;100431.96;;;15.41;76.44
49463;BME280;35357;51.722;0.500;2023-09-19T05:03:53;100432.67;;;14.96;77.09
49463;BME280;35357;51.722;0.500;2023-09-19T05:06:21;100433.38;;;15.02;77.06
49463;BME280;35357;51.722;0.500;2023-09-19T05:08:48;100435.46;;;15.74;74.10
49463;BME280;35357;51.722;0.500;2023-09-19T05:11:15;100432.76;;;14.93;76.03
49463;BME280;35357;51.722;0.500;2023-09-19T05:13:42;100436.30;;;14.63;79.22
49463;BME280;35357;51.722;0.500;2023-09-19T05:16:09;100434.05;;;15.48;76.34
49463;BME280;35357;51.722;0.500;2023-09-19T05:18:36;100431.88;;;15.79;74.57
49463;BME280;35357;51.722;0.500;2023-09-19T05:21:04;100428.80;;;15.80;74.73
49463;BME280;35357;51.722;0.500;2023-09-19T05:23:31;100428.10;;;16.03;74.81
49463;BME280;35357;51.722;0.500;2023-09-19T05:25:58;100421.78;;;14.75;78.05
49463;BME280;35357;51.722;0.500;2023-09-19T05:28:25;100413.18;;;16.27;74.60
49463;BME280;35357;51.722;0.500;2023-09-19T05:30:52;100410.43;;;16.16;74.43
49463;BME280;35357;51.722;0.500;2023-09-19T05:33:19;100398.40;;;16.60;74.12
49463;BME280;35357;51.722;0.500;2023-09-19T05:35:48;100396.22;;;15.97;75.26
49463;BME280;35357;51.722;0.500;2023-09-19T05:38:15;100396.32;;;15.68;76.87
49463;BME280;35357;51.722;0.500;2023-09-19T05:40:42;100390.11;;;15.92;76.26
49463;BME280;35357;51.722;0.500;2023-09-19T05:43:09;100388.37;;;15.65;77.93
49463;BME280;35357;51.722;0.500;2023-09-19T05:45:36;100384.53;;;16.46;76.39
49463;BME280;35357;51.722;0.500;2023-09-19T05:48:09;100383.69;;;16.31;76.25
49463;BME280;35357;51.722;0.500;2023-09-19T05:50:36;100375.87;;;16.10;76.53
49463;BME280;35357;51.722;0.500;2023-09-19T05:53:03;100376.94;;;16.51;76.10
49463;BME280;35357;51.722;0.500;2023-09-19T05:55:30;100383.27;;;16.00;77.20
49463;BME280;35357;51.722;0.500;2023-09-19T05:57:57;100380.53;;;16.39;77.20
49463;BME280;35357;51.722;0.500;2023-09-19T06:00:25;100382.71;;;16.52;78.08
49463;BME280;35357;51.722;0.500;2023-09-19T06:02:53;100381.02;;;15.73;80.14
49463;BME280;35357;51.722;0.500;2023-09-19T06:05:20;100378.39;;;16.22;77.77
49463;BME280;35357;51.722;0.500;2023-09-19T06:07:47;100377.25;;;16.13;78.49
49463;BME280;35357;51.722;0.500;2023-09-19T06:10:15;100369.76;;;16.17;78.27
49463;BME280;35357;51.722;0.500;2023-09-19T06:12:42;100366.70;;;14.79;82.80
49463;BME280;35357;51.722;0.500;2023-09-19T06:15:11;100359.88;;;15.80;80.67
49463;BME280;35357;51.722;0.500;2023-09-19T06:17:38;100359.92;;;15.71;80.49
49463;BME280;35357;51.722;0.500;2023-09-19T06:20:07;100354.51;;;15.68;81.80
49463;BME280;35357;51.722;0.500;2023-09-19T06:22:34;100348.55;;;16.16;81.06
49463;BME280;35357;51.722;0.500;2023-09-19T06:25:02;100348.96;;;16.32;81.05
49463;BME280;35357;51.722;0.500;2023-09-19T06:27:29;100348.58;;;16.53;79.97
49463;BME280;35357;51.722;0.500;2023-09-19T06:29:55;100339.95;;;16.01;82.97
49463;BME280;35357;51.722;0.500;2023-09-19T06:32:27;100345.30;;;16.54;81.47
49463;BME280;35357;51.722;0.500;2023-09-19T06:34:54;100337.66;;;16.35;81.45
49463;BME280;35357;51.722;0.500;2023-09-19T06:37:20;100338.37;;;15.07;88.63
49463;BME280;35357;51.722;0.500;2023-09-19T06:39:48;100329.39;;;14.70;90.50
49463;BME280;35357;51.722;0.500;2023-09-19T06:42:15;100326.91;;;15.81;85.48
49463;BME280;35357;51.722;0.500;2023-09-19T06:44:43;100326.42;;;15.47;88.42
49463;BME280;35357;51.722;0.500;2023-09-19T06:47:11;100331.17;;;14.90;91.71
49463;BME280;35357;51.722;0.500;2023-09-19T06:49:38;100331.13;;;15.40;89.97
49463;BME280;35357;51.722;0.500;2023-09-19T06:52:05;100331.30;;;15.53;87.83
49463;BME280;35357;51.722;0.500;2023-09-19T06:54:32;100333.25;;;15.50;88.47
49463;BME280;35357;51.722;0.500;2023-09-19T06:56:59;100327.94;;;14.98;91.19
49463;BME280;35357;51.722;0.500;2023-09-19T06:59:25;100323.92;;;15.23;89.55
49463;BME280;35357;51.722;0.500;2023-09-19T07:01:53;100320.09;;;15.54;88.89
49463;BME280;35357;51.722;0.500;2023-09-19T07:04:19;100319.17;;;14.94;91.42
49463;BME280;35357;51.722;0.500;2023-09-19T07:06:49;100318.91;;;15.90;89.46
49463;BME280;35357;51.722;0.500;2023-09-19T07:09:17;100315.52;;;15.19;91.90
49463;BME280;35357;51.722;0.500;2023-09-19T07:11:44;100316.17;;;16.17;89.32
49463;BME280;35357;51.722;0.500;2023-09-19T07:14:11;100309.57;;;16.30;87.74
49463;BME280;35357;51.722;0.500;2023-09-19T07:16:37;100298.46;;;16.31;88.03
49463;BME280;35357;51.722;0.500;2023-09-19T07:19:04;100284.25;;;15.48;90.54
49463;BME280;35357;51.722;0.500;2023-09-19T07:21:32;100286.23;;;15.58;92.13
49463;BME280;35357;51.722;0.500;2023-09-19T07:24:00;100280.68;;;15.57;92.22
49463;BME280;35357;51.722;0.500;2023-09-19T07:26:27;100282.42;;;15.40;91.11
49463;BME280;35357;51.722;0.500;2023-09-19T07:28:54;100286.51;;;15.39;95.69
49463;BME280;35357;51.722;0.500;2023-09-19T07:31:20;100292.66;;;15.86;93.45
49463;BME280;35357;51.722;0.500;2023-09-19T07:33:47;100282.05;;;15.77;95.05
49463;BME280;35357;51.722;0.500;2023-09-19T07:36:14;100283.35;;;16.10;92.62
49463;BME280;35357;51.722;0.500;2023-09-19T07:38:41;100281.95;;;14.65;99.32
49463;BME280;35357;51.722;0.500;2023-09-19T07:41:08;100277.15;;;15.10;98.12
49463;BME280;35357;51.722;0.500;2023-09-19T07:43:36;100281.63;;;16.36;92.62
49463;BME280;35357;51.722;0.500;2023-09-19T07:46:04;100266.67;;;16.80;90.08
49463;BME280;35357;51.722;0.500;2023-09-19T07:48:32;100261.47;;;15.56;94.74
49463;BME280;35357;51.722;0.500;2023-09-19T07:51:02;100261.04;;;16.38;90.34
49463;BME280;35357;51.722;0.500;2023-09-19T07:53:30;100263.69;;;15.47;93.71
49463;BME280;35357;51.722;0.500;2023-09-19T07:56:02;100258.42;;;16.42;90.99
49463;BME280;35357;51.722;0.500;2023-09-19T07:58:29;100262.69;;;14.90;97.20
49463;BME280;35357;51.722;0.500;2023-09-19T08:00:56;100255.96;;;16.44;92.75
49463;BME280;35357;51.722;0.500;2023-09-19T08:03:22;100262.41;;;16.25;93.10
49463;BME280;35357;51.722;0.500;2023-09-19T08:05:49;100262.27;;;16.38;91.63
49463;BME280;35357;51.722;0.500;2023-09-19T08:08:16;100262.64;;;16.24;93.13
49463;BME280;35357;51.722;0.500;2023-09-19T08:10:43;100253.49;;;17.02;90.50
49463;BME280;35357;51.722;0.500;2023-09-19T08:13:10;100257.90;;;16.95;90.11
49463;BME280;35357;51.722;0.500;2023-09-19T08:15:43;100246.84;;;15.80;93.96
49463;BME280;35357;51.722;0.500;2023-09-19T08:18:10;100260.81;;;15.94;94.85
49463;BME280;35357;51.722;0.500;2023-09-19T08:20:36;100250.75;;;15.66;94.39
49463;BME280;35357;51.722;0.500;2023-09-19T08:23:04;100246.70;;;16.74;92.94
49463;BME280;35357;51.722;0.500;2023-09-19T08:25:31;100241.14;;;16.49;92.52
49463;BME280;35357;51.722;0.500;2023-09-19T08:27:57;100240.97;;;16.17;94.10
49463;BME280;35357;51.722;0.500;2023-09-19T08:30:24;100243.80;;;16.32;93.29
49463;BME280;35357;51.722;0.500;2023-09-19T08:32:56;100229.10;;;17.28;89.60
49463;BME280;35357;51.722;0.500;2023-09-19T08:35:23;100236.14;;;16.87;90.85
49463;BME280;35357;51.722;0.500;2023-09-19T08:37:50;100237.53;;;16.52;92.40
49463;BME280;35357;51.722;0.500;2023-09-19T08:40:17;100235.28;;;16.35;92.36
49463;BME280;35357;51.722;0.500;2023-09-19T08:42:48;100234.46;;;16.73;91.32
49463;BME280;35357;51.722;0.500;2023-09-19T08:45:16;100230.31;;;16.99;89.98
49463;BME280;35357;51.722;0.500;2023-09-19T08:47:46;100238.75;;;16.19;93.32
49463;BME280;35357;51.722;0.500;2023-09-19T08:50:19;100247.77;;;16.36;94.13
49463;BME280;35357;51.722;0.500;2023-09-19T08:52:52;100242.79;;;16.21;94.46
49463;BME280;35357;51.722;0.500;2023-09-19T08:55:23;100238.28;;;16.36;94.17
49463;BME280;35357;51.722;0.500;2023-09-19T08:57:59;100234.22;;;15.65;96.12
49463;BME280;35357;51.722;0.500;2023-09-19T09:00:28;100241.14;;;16.61;93.00
49463;BME280;35357;51.722;0.500;2023-09-19T09:02:56;100248.42;;;16.66;93.00
49463;BME280;35357;51.722;0.500;2023-09-19T09:05:25;100245.39;;;16.07;94.48
49463;BME280;35357;51.722;0.500;2023-09-19T09:07:53;100237.83;;;16.03;94.19
49463;BME280;35357;51.722;0.500;2023-09-19T09:10:21;100237.56;;;16.53;93.73
49463;BME280;35357;51.722;0.500;2023-09-19T09:12:49;100227.19;;;16.93;92.04
49463;BME280;35357;51.722;0.500;2023-09-19T09:15:19;100247.75;;;16.16;95.47
49463;BME280;35357;51.722;0.500;2023-09-19T09:17:48;100237.14;;;16.26;95.16
49463;BME280;35357;51.722;0.500;2023-09-19T09:20:16;100235.64;;;15.81;96.92
49463;BME280;35357;51.722;0.500;2023-09-19T09:22:51;100227.15;;;16.64;94.82
49463;BME280;35357;51.722;0.500;2023-09-19T09:25:19;100225.39;;;17.26;91.39
49463;BME280;35357;51.722;0.500;2023-09-19T09:27:58;100225.20;;;17.57;91.21
49463;BME280;35357;51.722;0.500;2023-09-19T09:30:33;100227.92;;;16.24;94.81
49463;BME280;35357;51.722;0.500;2023-09-19T09:33:08;100224.48;;;16.69;93.83
49463;BME280;35357;51.722;0.500;2023-09-19T09:35:36;100210.43;;;18.18;88.84
49463;BME280;35357;51.722;0.500;2023-09-19T09:38:04;100198.39;;;17.18;91.03
49463;BME280;35357;51.722;0.500;2023-09-19T09:40:46;100200.33;;;17.37;89.61
49463;BME280;35357;51.722;0.500;2023-09-19T09:43:26;100187.67;;;17.21;89.26
49463;BME280;35357;51.722;0.500;2023-09-19T09:46:08;100200.19;;;17.94;86.75
49463;BME280;35357;51.722;0.500;2023-09-19T09:48:37;100203.81;;;17.83;87.65
49463;BME280;35357;51.722;0.500;2023-09-19T09:51:03;100202.04;;;17.72;86.62
49463;BME280;35357;51.722;0.500;2023-09-19T09:53:30;100211.82;;;17.86;86.42
49463;BME280;35357;51.722;0.500;2023-09-19T09:56:00;100209.71;;;17.36;88.77
49463;BME280;35357;51.722;0.500;2023-09-19T09:58:28;100206.48;;;16.68;92.29
49463;BME280;35357;51.722;0.500;2023-09-19T10:00:56;100196.60;;;17.68;90.53
49463;BME280;35357;51.722;0.500;2023-09-19T10:03:32;100192.67;;;17.96;87.18
49463;BME280;35357;51.722;0.500;2023-09-19T10:06:00;100192.90;;;18.05;85.35
49463;BME280;35357;51.722;0.500;2023-09-19T10:08:27;100192.79;;;17.72;87.93
49463;BME280;35357;51.722;0.500;2023-09-19T10:10:54;100197.45;;;17.18;87.09
49463;BME280;35357;51.722;0.500;2023-09-19T10:13:22;100180.90;;;17.30;87.44
49463;BME280;35357;51.722;0.500;2023-09-19T10:15:53;100170.27;;;16.94;89.55
49463;BME280;35357;51.722;0.500;2023-09-19T10:18:22;100182.77;;;16.87;89.48
49463;BME280;35357;51.722;0.500;2023-09-19T10:20:49;100185.26;;;16.73;90.27
49463;BME280;35357;51.722;0.500;2023-09-19T10:23:18;100179.32;;;16.62;90.71
49463;BME280;35357;51.722;0.500;2023-09-19T10:25:46;100171.51;;;17.44;89.97
49463;BME280;35357;51.722;0.500;2023-09-19T10:28:16;100170.63;;;18.31;85.17
49463;BME280;35357;51.722;0.500;2023-09-19T10:30:45;100162.22;;;17.06;87.57
49463;BME280;35357;51.722;0.500;2023-09-19T10:33:13;100168.82;;;16.09;91.87
49463;BME280;35357;51.722;0.500;2023-09-19T10:35:43;100163.23;;;17.17;87.10
49463;BME280;35357;51.722;0.500;2023-09-19T10:38:12;100162.13;;;17.22;87.48
49463;BME280;35357;51.722;0.500;2023-09-19T10:40:40;100168.31;;;16.83;89.26
49463;BME280;35357;51.722;0.500;2023-09-19T10:43:12;100157.96;;;17.03;87.46
49463;BME280;35357;51.722;0.500;2023-09-19T10:45:40;100155.96;;;17.37;86.60
49463;BME280;35357;51.722;0.500;2023-09-19T10:48:08;100169.39;;;17.16;88.15
49463;BME280;35357;51.722;0.500;2023-09-19T10:50:43;100165.09;;;16.76;89.02
49463;BME280;35357;51.722;0.500;2023-09-19T10:53:12;100170.56;;;17.81;85.99
49463;BME280;35357;51.722;0.500;2023-09-19T10:55:40;100177.79;;;17.80;86.17
49463;BME280;35357;51.722;0.500;2023-09-19T10:58:08;100166.04;;;17.44;85.53
49463;BME280;35357;51.722;0.500;2023-09-19T11:00:51;100163.09;;;17.45;87.38
49463;BME280;35357;51.722;0.500;2023-09-19T11:03:19;100157.45;;;18.29;84.48
49463;BME280;35357;51.722;0.500;2023-09-19T11:06:03;100158.35;;;17.73;86.15
49463;BME280;35357;51.722;0.500;2023-09-19T11:08:30;100165.83;;;17.05;86.81
49463;BME280;35357;51.722;0.500;2023-09-19T11:10:58;100160.72;;;18.15;84.22
49463;BME280;35357;51.722;0.500;2023-09-19T11:13:27;100147.50;;;18.55;83.55
49463;BME280;35357;51.722;0.500;2023-09-19T11:16:05;100157.48;;;18.76;83.07
49463;BME280;35357;51.722;0.500;2023-09-19T11:19:05;100166.03;;;17.70;85.32
49463;BME280;35357;51.722;0.500;2023-09-19T11:21:52;100166.02;;;18.97;82.29
49463;BME280;35357;51.722;0.500;2023-09-19T11:24:28;100156.43;;;19.71;78.69
49463;BME280;35357;51.722;0.500;2023-09-19T11:27:10;100164.06;;;19.80;78.06
49463;BME280;35357;51.722;0.500;2023-09-19T11:29:37;100160.11;;;18.73;80.27
49463;BME280;35357;51.722;0.500;2023-09-19T11:32:05;100165.24;;;18.55;82.72
49463;BME280;35357;51.722;0.500;2023-09-19T11:34:47;100172.45;;;19.48;79.83
49463;BME280;35357;51.722;0.500;2023-09-19T11:38:57;100172.17;;;17.89;84.09
49463;BME280;35357;51.722;0.500;2023-09-19T11:41:41;100174.52;;;19.65;80.52
49463;BME280;35357;51.722;0.500;2023-09-19T11:44:40;100161.64;;;18.48;82.88
49463;BME280;35357;51.722;0.500;2023-09-19T11:47:08;100165.50;;;17.86;84.19
49463;BME280;35357;51.722;0.500;2023-09-19T11:49:40;100168.44;;;18.54;83.54
49463;BME280;35357;51.722;0.500;2023-09-19T11:52:07;100167.44;;;19.03;82.72
49463;BME280;35357;51.722;0.500;2023-09-19T11:54:36;100172.30;;;18.28;83.49
49463;BME280;35357;51.722;0.500;2023-09-19T11:57:04;100175.95;;;18.22;84.04
49463;BME280;35357;51.722;0.500;2023-09-19T11:59:31;100174.23;;;19.64;80.02
49463;BME280;35357;51.722;0.500;2023-09-19T12:02:01;100170.92;;;19.21;81.37
49463;BME280;35357;51.722;0.500;2023-09-19T12:04:35;100173.84;;;18.67;81.99
49463;BME280;35357;51.722;0.500;2023-09-19T12:07:03;100169.57;;;18.99;82.53
49463;BME280;35357;51.722;0.500;2023-09-19T12:09:30;100180.63;;;19.03;82.62
49463;BME280;35357;51.722;0.500;2023-09-19T12:11:57;100169.78;;;18.82;82.85
49463;BME280;35357;51.722;0.500;2023-09-19T12:14:26;100168.79;;;19.22;82.18
49463;BME280;35357;51.722;0.500;2023-09-19T12:16:54;100169.96;;;17.92;86.28
49463;BME280;35357;51.722;0.500;2023-09-19T12:19:22;100169.68;;;18.71;86.22
49463;BME280;35357;51.722;0.500;2023-09-19T12:21:58;100171.61;;;17.72;89.40
49463;BME280;35357;51.722;0.500;2023-09-19T12:24:27;100169.78;;;18.31;87.41
49463;BME280;35357;51.722;0.500;2023-09-19T12:27:00;100169.92;;;18.69;84.84
49463;BME280;35357;51.722;0.500;2023-09-19T12:29:27;100178.65;;;18.53;87.16
49463;BME280;35357;51.722;0.500;2023-09-19T12:31:55;100177.04;;;18.22;87.73
49463;BME280;35357;51.722;0.500;2023-09-19T12:34:23;100179.72;;;18.55;87.68
49463;BME280;35357;51.722;0.500;2023-09-19T12:37:04;100174.99;;;17.91;88.93
49463;BME280;35357;51.722;0.500;2023-09-19T12:39:30;100165.46;;;18.34;89.21
49463;BME280;35357;51.722;0.500;2023-09-19T12:41:57;100175.03;;;17.76;92.50
49463;BME280;35357;51.722;0.500;2023-09-19T12:44:25;100167.04;;;17.42;90.81
49463;BME280;35357;51.722;0.500;2023-09-19T12:46:53;100169.76;;;17.38;93.14
49463;BME280;35357;51.722;0.500;2023-09-19T12:49:20;100165.30;;;17.13;94.25
49463;BME280;35357;51.722;0.500;2023-09-19T12:51:49;100171.46;;;17.78;93.22
49463;BME280;35357;51.722;0.500;2023-09-19T12:54:16;100173.44;;;17.94;91.65
49463;BME280;35357;51.722;0.500;2023-09-19T12:56:44;100178.34;;;17.82;92.63
49463;BME280;35357;51.722;0.500;2023-09-19T12:59:13;100173.84;;;17.82;93.29
49463;BME280;35357;51.722;0.500;2023-09-19T13:01:42;100172.63;;;18.52;90.69